Time;durP1;ratioP1;P1;durP2;ratioP2;P2;SDS_P1;SDS_P2;PMS_P1;PMS_P2;Temp;Humidity;BMP_temperature;BMP_pressure;BME280_temperature;BME280_humidity;BME280_pressure;Samples;Min_cycle;Max_cycle;Signal;HPM_P1;HPM_P2
2021/01/25 00:00:38;;;;;;;6.13;3.47;;;77.10;2227.20;;;;;;5134358;27;20073;-78
2021/01/25 00:03:04;;;;;;;4.60;3.03;;;77.00;2227.20;;;;;;5134555;27;20471;-78
2021/01/25 00:05:31;;;;;;;4.70;3.07;;;77.00;2227.20;;;;;;5134408;27;20360;-79
2021/01/25 00:07:57;;;;;;;5.50;3.37;;;76.90;2227.20;;;;;;5133409;27;20055;-78
2021/01/25 00:10:23;;;;;;;6.07;3.47;;;76.90;2227.20;;;;;;5134403;27;20023;-79
2021/01/25 00:12:49;;;;;;;5.43;3.63;;;76.80;2227.20;;;;;;5134204;27;20039;-81
2021/01/25 00:15:15;;;;;;;5.70;3.80;;;76.80;2227.20;;;;;;5134378;27;20071;-83
2021/01/25 00:17:41;;;;;;;5.83;3.83;;;52.10;2227.20;;;;;;5134565;27;20057;-89
2021/01/25 00:20:07;;;;;;;5.57;3.63;;;52.10;2227.20;;;;;;5134104;27;20023;-87
2021/01/25 00:22:33;;;;;;;5.47;4.07;;;52.10;2227.20;;;;;;5133414;27;20072;-89
2021/01/25 00:24:59;;;;;;;5.63;3.80;;;52.00;2227.20;;;;;;5132833;28;20023;-82
2021/01/25 00:27:25;;;;;;;6.77;4.40;;;52.00;2227.20;;;;;;5133069;28;20372;-87
2021/01/25 00:29:50;;;;;;;6.47;4.33;;;51.90;2227.20;;;;;;5134525;27;20023;-86
2021/01/25 00:32:16;;;;;;;6.17;4.57;;;51.80;2227.20;;;;;;5134163;27;20479;-89
2021/01/25 00:34:43;;;;;;;7.10;4.90;;;51.70;2227.20;;;;;;5133951;27;20023;-88
2021/01/25 00:37:09;;;;;;;6.73;4.57;;;51.70;2227.20;;;;;;5134424;27;20414;-81
2021/01/25 00:39:35;;;;;;;7.53;5.20;;;51.70;2227.20;;;;;;5133265;28;20020;-86
2021/01/25 00:42:01;;;;;;;8.93;5.60;;;51.60;2227.20;;;;;;5134258;28;20051;-78
2021/01/25 00:44:26;;;;;;;8.10;5.13;;;51.60;2227.20;;;;;;5133079;28;20475;-87
2021/01/25 00:46:52;;;;;;;7.67;4.90;;;51.60;2227.20;;;;;;5134433;28;20048;-78
2021/01/25 00:49:18;;;;;;;7.50;5.00;;;51.60;2227.20;;;;;;5133852;27;20027;-86
2021/01/25 00:51:44;;;;;;;8.00;4.33;;;51.60;2227.20;;;;;;5132655;28;20126;-90
2021/01/25 00:54:10;;;;;;;7.27;4.40;;;51.60;2227.20;;;;;;5132624;28;20027;-87
2021/01/25 00:56:35;;;;;;;5.43;3.60;;;51.50;2227.20;;;;;;5134188;27;20023;-88
2021/01/25 00:59:01;;;;;;;7.40;4.17;;;51.50;2227.20;;;;;;5138126;27;20019;-89
2021/01/25 01:01:27;;;;;;;7.30;4.73;;;51.60;2227.20;;;;;;5137867;27;20390;-87
2021/01/25 01:03:53;;;;;;;9.00;4.90;;;51.50;2227.20;;;;;;5136827;27;20133;-88
2021/01/25 01:06:19;;;;;;;10.10;5.60;;;51.50;2227.20;;;;;;5136434;27;20019;-78
2021/01/25 01:08:44;;;;;;;10.90;5.57;;;51.50;2227.20;;;;;;5136547;27;20088;-79
2021/01/25 01:11:11;;;;;;;7.87;5.50;;;51.40;2227.20;;;;;;5136657;27;20031;-83
2021/01/25 01:13:37;;;;;;;9.70;5.63;;;51.50;2227.20;;;;;;5137882;27;20023;-89
2021/01/25 01:16:03;;;;;;;9.10;5.17;;;51.50;2227.20;;;;;;5137547;27;20165;-79
2021/01/25 01:18:28;;;;;;;10.87;5.73;;;51.60;2227.20;;;;;;5137087;27;20488;-79
2021/01/25 01:20:54;;;;;;;7.53;4.60;;;51.50;2227.20;;;;;;5137627;27;20050;-79
2021/01/25 01:23:20;;;;;;;8.40;5.27;;;51.50;2227.20;;;;;;5137400;27;20395;-86
2021/01/25 01:25:46;;;;;;;7.50;4.97;;;51.60;2227.20;;;;;;5136154;27;20031;-78
2021/01/25 01:28:12;;;;;;;7.37;4.83;;;51.60;2227.20;;;;;;5137278;27;20058;-89
2021/01/25 01:30:38;;;;;;;9.33;5.63;;;51.60;2227.20;;;;;;5137089;27;20025;-88
2021/01/25 01:33:03;;;;;;;10.43;6.60;;;51.50;2227.20;;;;;;5137620;27;20031;-78
2021/01/25 01:35:29;;;;;;;10.50;7.33;;;51.50;2227.20;;;;;;5135898;27;20114;-79
2021/01/25 01:37:55;;;;;;;13.07;7.33;;;51.50;2227.20;;;;;;5135519;27;20031;-88
2021/01/25 01:40:21;;;;;;;9.67;6.93;;;51.50;2227.20;;;;;;5136037;27;20071;-79
2021/01/25 01:42:46;;;;;;;10.57;6.17;;;51.50;2227.20;;;;;;5135837;27;20384;-90
2021/01/25 01:45:13;;;;;;;9.90;6.60;;;51.50;2227.20;;;;;;5137153;27;20031;-87
2021/01/25 01:47:42;;;;;;;9.97;6.03;;;51.90;2227.20;;;;;;5137037;27;20031;-90
2021/01/25 01:50:09;;;;;;;7.70;5.23;;;51.60;2227.20;;;;;;5137424;27;20087;-87
2021/01/25 01:52:35;;;;;;;8.33;4.67;;;51.50;2227.20;;;;;;5137163;27;20031;-78
2021/01/25 01:55:02;;;;;;;7.03;4.03;;;51.50;2227.20;;;;;;5137346;27;20016;-90
2021/01/25 01:57:34;;;;;;;7.60;4.73;;;51.50;2227.20;;;;;;5134504;27;20023;-87
2021/01/25 02:00:07;;;;;;;6.37;4.43;;;51.50;2227.20;;;;;;5136903;27;20062;-79
2021/01/25 02:02:33;;;;;;;7.43;4.72;;;51.50;2227.20;;;;;;5137019;27;20019;-88
2021/01/25 02:05:00;;;;;;;5.73;3.93;;;51.50;2227.20;;;;;;5135609;27;20028;-78
2021/01/25 02:07:27;;;;;;;6.10;4.20;;;51.40;2227.20;;;;;;5134872;27;20031;-89
2021/01/25 02:09:54;;;;;;;5.43;3.60;;;51.40;2227.20;;;;;;5134668;27;20027;-87
2021/01/25 02:12:20;;;;;;;6.37;3.40;;;51.50;2227.20;;;;;;5137092;27;20023;-79
2021/01/25 02:14:47;;;;;;;5.30;3.40;;;51.40;2227.20;;;;;;5135748;27;20019;-89
2021/01/25 02:17:15;;;;;;;7.00;3.73;;;51.40;2227.20;;;;;;5135562;27;20368;-86
2021/01/25 02:20:15;;;;;;;5.37;3.60;;;51.40;2227.20;;;;;;5136811;27;20068;-89
2021/01/25 02:23:18;;;;;;;4.87;2.80;;;51.40;2227.20;;;;;;5134395;27;20027;-91
2021/01/25 02:26:02;;;;;;;4.40;2.83;;;51.30;2227.20;;;;;;5134849;27;20015;-78
2021/01/25 02:28:30;;;;;;;2.95;2.30;;;51.30;2227.20;;;;;;5137199;27;20540;-79
2021/01/25 02:30:58;;;;;;;5.47;2.80;;;51.30;2227.20;;;;;;5135332;27;20027;-78
2021/01/25 02:33:27;;;;;;;4.13;2.57;;;51.30;2227.20;;;;;;5135337;27;20031;-78
2021/01/25 02:35:54;;;;;;;3.43;2.30;;;51.30;2227.20;;;;;;5136825;27;20372;-88
2021/01/25 02:38:21;;;;;;;4.07;2.87;;;51.30;2227.20;;;;;;5135571;27;20110;-79
2021/01/25 02:40:48;;;;;;;3.77;2.47;;;51.30;2227.20;;;;;;5135598;27;20080;-83
2021/01/25 02:43:17;;;;;;;3.37;2.60;;;51.30;2227.20;;;;;;5135797;27;20031;-89
2021/01/25 02:45:44;;;;;;;4.33;2.70;;;51.30;2227.20;;;;;;5136415;27;20051;-88
2021/01/25 02:48:10;;;;;;;4.20;2.93;;;51.30;2227.20;;;;;;5135308;27;20020;-79
2021/01/25 02:50:36;;;;;;;4.57;3.10;;;51.30;2227.20;;;;;;5135235;27;20075;-79
2021/01/25 02:53:02;;;;;;;5.33;3.17;;;51.30;2227.20;;;;;;5136240;27;20031;-83
2021/01/25 02:55:30;;;;;;;4.10;3.10;;;51.30;2227.20;;;;;;5136035;27;20387;-85
2021/01/25 02:57:57;;;;;;;4.40;2.90;;;51.30;2227.20;;;;;;5134994;27;20164;-80
2021/01/25 03:00:23;;;;;;;4.27;3.17;;;51.20;2227.20;;;;;;5134913;27;20396;-87
2021/01/25 03:02:51;;;;;;;6.13;4.23;;;51.30;2227.20;;;;;;5134701;27;20180;-79
2021/01/25 03:05:18;;;;;;;5.90;4.50;;;51.30;2227.20;;;;;;5135182;27;20023;-88
2021/01/25 03:07:44;;;;;;;12.70;9.23;;;51.30;2227.20;;;;;;5136110;27;20034;-87
2021/01/25 03:10:11;;;;;;;12.67;9.43;;;51.30;2227.20;;;;;;5135871;27;20050;-79
2021/01/25 03:12:37;;;;;;;24.57;18.03;;;51.30;2227.20;;;;;;5136137;27;20033;-87
2021/01/25 03:15:05;;;;;;;21.03;14.83;;;51.30;2227.20;;;;;;5135880;27;20015;-86
2021/01/25 03:17:31;;;;;;;21.53;15.30;;;51.30;2227.20;;;;;;5134613;27;20471;-79
2021/01/25 03:19:57;;;;;;;19.00;14.00;;;51.40;2227.20;;;;;;5135651;27;20098;-87
2021/01/25 03:22:23;;;;;;;21.60;16.17;;;51.30;2227.20;;;;;;5135648;27;20063;-90
2021/01/25 03:24:49;;;;;;;23.23;17.57;;;51.30;2227.20;;;;;;5135441;27;20034;-87
2021/01/25 03:27:15;;;;;;;22.33;17.07;;;51.30;2227.20;;;;;;5135235;27;20071;-85
2021/01/25 03:29:41;;;;;;;21.13;14.70;;;51.30;2227.20;;;;;;5134112;27;20023;-79
2021/01/25 03:32:06;;;;;;;18.60;14.03;;;51.30;2227.20;;;;;;5134316;27;20441;-89
2021/01/25 03:34:32;;;;;;;19.57;14.80;;;51.20;2227.20;;;;;;5134176;27;20023;-91
2021/01/25 03:36:59;;;;;;;13.70;10.97;;;51.20;2227.20;;;;;;5134152;27;20034;-87
2021/01/25 03:39:25;;;;;;;12.10;9.73;;;51.20;2227.20;;;;;;5135262;27;20031;-78
2021/01/25 03:41:51;;;;;;;17.93;12.83;;;51.20;2227.20;;;;;;5133962;27;20030;-78
2021/01/25 03:44:17;;;;;;;18.37;13.77;;;51.20;2227.20;;;;;;5133995;27;20466;-87
2021/01/25 03:46:46;;;;;;;16.37;12.53;;;51.20;2227.20;;;;;;5134248;27;20118;-87
2021/01/25 03:49:16;;;;;;;13.33;8.37;;;51.20;2227.20;;;;;;5135705;27;20486;-84
2021/01/25 03:51:42;;;;;;;14.33;8.03;;;51.20;2227.20;;;;;;5133754;27;20019;-88
2021/01/25 03:54:14;;;;;;;11.53;6.37;;;51.20;2227.20;;;;;;5135303;27;20019;-85
2021/01/25 03:56:44;;;;;;;12.17;6.47;;;51.20;2227.20;;;;;;5133521;27;20052;-85
2021/01/25 03:59:10;;;;;;;9.33;6.20;;;51.30;2227.20;;;;;;5134908;27;20058;-79
2021/01/25 04:01:36;;;;;;;10.70;6.90;;;51.30;2227.20;;;;;;5134888;27;20483;-88
2021/01/25 04:04:02;;;;;;;8.93;6.33;;;51.40;2227.20;;;;;;5135170;27;20019;-79
2021/01/25 04:06:28;;;;;;;15.03;8.17;;;51.40;2227.20;;;;;;5133743;27;20022;-87
2021/01/25 04:08:54;;;;;;;18.63;9.57;;;51.30;2227.20;;;;;;5134947;27;20372;-91
2021/01/25 04:11:20;;;;;;;17.80;9.20;;;51.30;2227.20;;;;;;5134524;27;20103;-79
2021/01/25 04:13:46;;;;;;;15.93;9.90;;;51.30;2227.20;;;;;;5135046;27;20022;-79
2021/01/25 04:16:11;;;;;;;9.83;6.63;;;51.30;2227.20;;;;;;5134957;27;20026;-88
2021/01/25 04:18:37;;;;;;;12.40;6.83;;;51.30;2227.20;;;;;;5133146;27;20437;-79
2021/01/25 04:21:03;;;;;;;11.40;7.43;;;51.30;2227.20;;;;;;5134879;27;20058;-89
2021/01/25 04:23:29;;;;;;;10.23;6.37;;;51.30;2227.20;;;;;;5134282;27;20072;-81
2021/01/25 04:25:55;;;;;;;11.17;6.67;;;51.30;2227.20;;;;;;5133633;28;20027;-88
2021/01/25 04:28:21;;;;;;;9.50;6.70;;;51.40;2227.20;;;;;;5134975;28;20483;-79
2021/01/25 04:30:48;;;;;;;8.37;6.10;;;51.40;2227.20;;;;;;5134654;27;20050;-88
2021/01/25 04:33:14;;;;;;;10.63;7.20;;;51.40;2227.20;;;;;;5138066;27;20096;-79
2021/01/25 04:35:41;;;;;;;10.00;6.43;;;51.40;2227.20;;;;;;5137797;27;20037;-79
2021/01/25 04:38:08;;;;;;;8.07;6.07;;;51.50;2227.20;;;;;;5137857;27;20034;-79
2021/01/25 04:40:35;;;;;;;11.43;6.63;;;51.50;2227.20;;;;;;5137739;27;20020;-79
2021/01/25 04:43:01;;;;;;;9.83;6.53;;;51.60;2227.20;;;;;;5138877;27;20429;-78
2021/01/25 04:45:27;;;;;;;9.53;6.97;;;51.50;2227.20;;;;;;5137702;27;20028;-85
2021/01/25 04:47:54;;;;;;;9.33;6.77;;;51.50;2227.20;;;;;;5139329;27;20023;-89
2021/01/25 04:50:21;;;;;;;11.00;7.27;;;51.60;2227.20;;;;;;5138711;27;20023;-80
2021/01/25 04:52:48;;;;;;;13.00;8.27;;;51.60;2227.20;;;;;;5138563;27;20067;-79
2021/01/25 04:55:16;;;;;;;12.13;6.43;;;51.60;2227.20;;;;;;5137617;27;20030;-87
2021/01/25 04:57:43;;;;;;;11.23;6.07;;;51.60;2227.20;;;;;;5137533;27;20027;-84
2021/01/25 05:00:11;;;;;;;8.13;5.83;;;51.60;2227.20;;;;;;5136934;27;20461;-82
2021/01/25 05:02:38;;;;;;;10.23;6.53;;;51.60;2227.20;;;;;;5137121;27;20030;-88
2021/01/25 05:05:09;;;;;;;8.50;6.20;;;51.60;2227.20;;;;;;5137038;27;20023;-80
2021/01/25 05:07:35;;;;;;;6.83;5.47;;;51.60;2227.20;;;;;;5138407;27;20080;-86
2021/01/25 05:10:02;;;;;;;9.63;6.33;;;51.60;2227.20;;;;;;5137952;27;20494;-79
2021/01/25 05:12:51;;;;;;;9.60;6.27;;;51.60;2227.20;;;;;;5136560;27;20560;-87
2021/01/25 05:15:31;;;;;;;11.03;6.10;;;51.60;2227.20;;;;;;5137007;27;20023;-79
2021/01/25 05:18:03;;;;;;;13.53;7.90;;;51.60;2227.20;;;;;;5137143;27;20117;-86
2021/01/25 05:20:31;;;;;;;12.43;8.27;;;51.60;2227.20;;;;;;5137633;27;20082;-87
2021/01/25 05:22:59;;;;;;;12.83;8.50;;;51.60;2227.20;;;;;;5138060;27;20027;-86
2021/01/25 05:25:32;;;;;;;16.87;10.60;;;51.60;2227.20;;;;;;5136315;27;20026;-87
2021/01/25 05:28:00;;;;;;;14.43;9.02;;;51.60;2227.20;;;;;;5138291;27;20110;-86
2021/01/25 05:30:27;;;;;;;12.40;8.43;;;51.60;2227.20;;;;;;5136481;27;20055;-87
2021/01/25 05:32:55;;;;;;;11.60;9.03;;;51.60;2227.20;;;;;;5137870;27;20081;-88
2021/01/25 05:35:32;;;;;;;11.10;9.43;;;51.60;2227.20;;;;;;5136577;27;20023;-78
2021/01/25 05:38:07;;;;;;;17.17;11.37;;;51.60;2227.20;;;;;;5136523;27;20068;-85
2021/01/25 05:40:35;;;;;;;14.60;11.53;;;51.60;2227.20;;;;;;5136811;27;20027;-79
2021/01/25 05:43:10;;;;;;;14.47;10.37;;;51.60;2227.20;;;;;;5136317;27;20019;-78
2021/01/25 05:45:36;;;;;;;13.60;9.93;;;51.60;2227.20;;;;;;5136877;27;20019;-86
2021/01/25 05:48:02;;;;;;;13.23;10.10;;;51.50;2227.20;;;;;;5137683;27;20078;-79
2021/01/25 05:50:42;;;;;;;13.47;11.13;;;51.60;2227.20;;;;;;5135984;27;20483;-88
2021/01/25 05:53:12;;;;;;;17.27;11.90;;;51.60;2227.20;;;;;;5136363;27;20046;-86
2021/01/25 05:55:39;;;;;;;18.07;15.03;;;51.60;2227.20;;;;;;5136104;27;20042;-79
2021/01/25 05:58:05;;;;;;;16.60;12.43;;;51.60;2227.20;;;;;;5136156;27;20019;-88
2021/01/25 06:00:34;;;;;;;18.73;14.60;;;51.60;2227.20;;;;;;5136930;27;20502;-79
2021/01/25 06:03:01;;;;;;;15.20;10.83;;;51.60;2227.20;;;;;;5136360;27;20030;-79
2021/01/25 06:05:41;;;;;;;14.47;10.20;;;51.60;2227.20;;;;;;5137222;27;20023;-86
2021/01/25 06:08:13;;;;;;;16.03;10.53;;;51.60;2227.20;;;;;;5137157;27;20485;-78
2021/01/25 06:10:56;;;;;;;16.67;12.57;;;51.50;2227.20;;;;;;5137258;27;20099;-87
2021/01/25 06:13:28;;;;;;;14.38;11.23;;;51.60;2227.20;;;;;;5137147;27;20035;-84
2021/01/25 06:15:57;;;;;;;15.43;10.33;;;51.60;2227.20;;;;;;5137029;27;20028;-79
2021/01/25 06:18:23;;;;;;;19.40;11.70;;;51.50;2227.20;;;;;;5135855;27;20023;-79
2021/01/25 06:20:52;;;;;;;18.20;10.97;;;51.50;2227.20;;;;;;5135347;27;20230;-87
2021/01/25 06:23:18;;;;;;;19.37;12.63;;;51.60;2227.20;;;;;;5135363;27;20023;-88
2021/01/25 06:25:45;;;;;;;16.50;11.33;;;51.60;2227.20;;;;;;5135523;27;20023;-78
2021/01/25 06:28:15;;;;;;;16.83;11.20;;;51.60;2227.20;;;;;;5135620;27;20051;-79
2021/01/25 06:30:44;;;;;;;14.73;10.00;;;51.60;2227.20;;;;;;5136832;27;20106;-79
2021/01/25 06:33:22;;;;;;;41.93;29.10;;;51.60;2227.20;;;;;;5135544;27;20088;-79
2021/01/25 06:35:50;;;;;;;23.90;14.43;;;51.60;2227.20;;;;;;5136837;27;20025;-85
2021/01/25 06:38:18;;;;;;;20.63;12.13;;;51.60;2227.20;;;;;;5136311;27;20110;-84
2021/01/25 06:40:46;;;;;;;29.37;16.13;;;51.60;2227.20;;;;;;5136518;27;20023;-78
2021/01/25 06:43:14;;;;;;;26.10;15.00;;;51.60;2227.20;;;;;;5135085;27;20055;-84
2021/01/25 06:45:45;;;;;;;44.53;20.80;;;51.60;2227.20;;;;;;5135120;27;20088;-79
2021/01/25 06:48:20;;;;;;;41.20;19.20;;;51.70;2227.20;;;;;;5135473;27;20054;-78
2021/01/25 06:50:49;;;;;;;50.20;26.60;;;51.70;2227.20;;;;;;5136381;27;20015;-86
2021/01/25 06:53:15;;;;;;;36.37;20.07;;;51.70;2227.20;;;;;;5135255;27;20628;-86
2021/01/25 06:55:43;;;;;;;30.63;17.67;;;51.70;2227.20;;;;;;5134324;27;20040;-84
2021/01/25 06:58:11;;;;;;;33.47;18.57;;;51.70;2227.20;;;;;;5135891;27;20035;-84
2021/01/25 07:00:40;;;;;;;69.40;32.63;;;51.70;2227.20;;;;;;5135723;27;20529;-86
2021/01/25 07:03:08;;;;;;;49.57;23.00;;;51.80;2227.20;;;;;;5135326;27;20019;-86
2021/01/25 07:05:38;;;;;;;52.03;24.60;;;51.70;2227.20;;;;;;5136054;27;20054;-78
2021/01/25 07:08:20;;;;;;;32.97;16.07;;;51.80;2227.20;;;;;;5134945;27;20023;-79
2021/01/25 07:11:00;;;;;;;48.13;21.37;;;51.80;2227.20;;;;;;5136198;27;20019;-85
2021/01/25 07:13:31;;;;;;;29.33;13.83;;;51.80;2227.20;;;;;;5134818;27;20027;-84
2021/01/25 07:15:57;;;;;;;34.20;16.80;;;51.80;2227.20;;;;;;5136131;27;20459;-80
2021/01/25 07:18:25;;;;;;;36.70;18.17;;;51.80;2227.20;;;;;;5134743;27;20027;-85
2021/01/25 07:20:53;;;;;;;45.63;23.13;;;51.80;2227.20;;;;;;5134062;27;20102;-79
2021/01/25 07:23:21;;;;;;;30.13;16.57;;;51.80;2227.20;;;;;;5114911;28;20016;-77
2021/01/25 07:25:54;;;;;;;28.17;16.37;;;51.80;2227.20;;;;;;5115176;28;20448;-78
2021/01/25 07:28:21;;;;;;;18.73;11.73;;;51.80;2227.20;;;;;;5113658;28;20081;-78
2021/01/25 07:30:48;;;;;;;20.83;13.07;;;51.80;2227.20;;;;;;5114745;27;20103;-78
2021/01/25 07:33:14;;;;;;;30.30;16.40;;;51.80;2227.20;;;;;;5121135;27;20031;-72
2021/01/25 07:35:40;;;;;;;18.33;11.23;;;51.80;2227.20;;;;;;5135125;27;20056;-71
2021/01/25 07:38:06;;;;;;;17.67;11.20;;;51.80;2227.20;;;;;;5135119;27;20065;-79
2021/01/25 07:40:32;;;;;;;23.53;14.53;;;51.80;2227.20;;;;;;5135342;27;20410;-71
2021/01/25 07:43:01;;;;;;;15.17;8.40;;;51.90;2227.20;;;;;;5134929;27;20023;-71
2021/01/25 07:45:27;;;;;;;19.57;11.63;;;52.00;2227.20;;;;;;5134877;27;20027;-71
2021/01/25 07:47:53;;;;;;;19.17;11.87;;;52.10;2227.20;;;;;;5134963;27;20026;-71
2021/01/25 07:50:19;;;;;;;15.43;8.63;;;76.80;2227.20;;;;;;5134913;27;20031;-71
2021/01/25 07:53:03;;;;;;;14.83;9.37;;;76.80;2227.20;;;;;;5134782;27;20035;-71
2021/01/25 07:55:30;;;;;;;16.15;10.25;;;76.80;2227.20;;;;;;5134940;27;20023;-71
2021/01/25 07:58:08;;;;;;;13.90;8.73;;;77.00;2227.20;;;;;;5134791;27;20506;-71
2021/01/25 08:00:37;;;;;;;23.17;12.57;;;77.10;2227.20;;;;;;5134591;27;20040;-71
2021/01/25 08:03:16;;;;;;;18.03;10.13;;;77.20;2227.20;;;;;;5134689;27;20106;-71
2021/01/25 08:05:42;;;;;;;19.43;10.00;;;77.30;2227.20;;;;;;5134259;27;20015;-71
2021/01/25 08:08:13;;;;;;;12.37;7.93;;;77.30;2227.20;;;;;;5134841;27;20079;-71
2021/01/25 08:10:40;;;;;;;15.47;7.87;;;77.20;2227.20;;;;;;5135166;27;20019;-71
2021/01/25 08:13:17;;;;;;;14.47;8.63;;;77.30;2227.20;;;;;;5134487;27;20543;-71
2021/01/25 08:16:04;;;;;;;14.80;9.13;;;77.30;2227.20;;;;;;5134620;27;20532;-79
2021/01/25 08:18:54;;;;;;;12.40;7.20;;;77.40;2227.20;;;;;;5134579;27;20463;-71
2021/01/25 08:21:26;;;;;;;11.63;7.57;;;77.40;2227.20;;;;;;5123389;27;20040;-71
2021/01/25 08:23:55;;;;;;;10.60;7.20;;;77.30;2227.20;;;;;;5134505;27;20023;-71
2021/01/25 08:26:23;;;;;;;13.50;8.60;;;77.30;2227.20;;;;;;5133120;28;20391;-72
2021/01/25 08:28:56;;;;;;;17.97;10.83;;;77.30;2227.20;;;;;;5134482;27;20383;-71
2021/01/25 08:31:45;;;;;;;11.93;7.10;;;77.30;2227.20;;;;;;5134339;27;20100;-71
2021/01/25 08:34:31;;;;;;;23.60;13.60;;;77.40;2227.20;;;;;;5134441;27;20495;-71
2021/01/25 08:37:02;;;;;;;18.47;12.23;;;77.50;2227.20;;;;;;5134368;27;20060;-71
2021/01/25 08:39:38;;;;;;;16.37;9.63;;;77.50;2227.20;;;;;;5134686;27;20019;-71
2021/01/25 08:42:11;;;;;;;13.73;8.40;;;77.40;2227.20;;;;;;5134312;27;20070;-71
2021/01/25 08:44:50;;;;;;;13.65;9.88;;;77.30;2227.20;;;;;;5134302;27;20433;-71
2021/01/25 08:47:23;;;;;;;13.03;8.47;;;77.40;2227.20;;;;;;5134363;27;20019;-71
2021/01/25 08:49:50;;;;;;;18.27;13.27;;;77.50;2227.20;;;;;;5134251;27;20080;-71
2021/01/25 08:52:39;;;;;;;17.87;10.57;;;102.90;2227.20;;;;;;5134109;27;20506;-71
2021/01/25 08:55:13;;;;;;;13.83;9.23;;;103.10;2227.20;;;;;;5134205;27;20075;-72
2021/01/25 08:57:41;;;;;;;17.27;10.20;;;153.70;2099.20;;;;;;5134218;27;20486;-71
2021/01/25 09:00:17;;;;;;;8.53;5.23;;;154.20;2022.40;;;;;;5133916;27;20081;-71
2021/01/25 09:02:44;;;;;;;12.30;7.13;;;128.60;2099.20;;;;;;5133390;27;20475;-73
2021/01/25 09:05:12;;;;;;;9.93;6.53;;;128.00;2227.20;;;;;;5133485;28;20031;-71
2021/01/25 09:07:38;;;;;;;8.57;5.40;;;103.10;2201.60;;;;;;5134138;28;20016;-74
2021/01/25 09:10:06;;;;;;;10.97;6.60;;;103.10;2201.60;;;;;;5133904;28;20022;-72
2021/01/25 09:12:32;;;;;;;8.70;5.87;;;102.90;2227.20;;;;;;5133774;28;20023;-80
2021/01/25 09:14:59;;;;;;;13.40;7.60;;;102.90;2227.20;;;;;;5133551;28;20019;-72
2021/01/25 09:17:25;;;;;;;12.13;7.13;;;102.90;2227.20;;;;;;5133546;27;20019;-71
2021/01/25 09:19:52;;;;;;;11.77;6.40;;;102.90;2227.20;;;;;;5136207;27;20383;-72
2021/01/25 09:22:18;;;;;;;27.53;14.67;;;102.90;2227.20;;;;;;5137550;27;20026;-73
2021/01/25 09:24:44;;;;;;;26.63;14.47;;;102.90;2227.20;;;;;;5137666;27;20076;-71
2021/01/25 09:27:11;;;;;;;22.57;17.20;;;103.10;2227.20;;;;;;5137663;27;20019;-71
2021/01/25 09:29:37;;;;;;;11.07;8.10;;;103.10;2227.20;;;;;;5135381;27;20100;-72
2021/01/25 09:32:05;;;;;;;24.40;14.43;;;103.10;2227.20;;;;;;5137311;27;20123;-72
2021/01/25 09:34:31;;;;;;;14.60;7.63;;;128.00;2252.80;;;;;;5136549;27;20349;-72
2021/01/25 09:36:57;;;;;;;8.80;5.33;;;128.10;2227.20;;;;;;5136087;27;20084;-72
2021/01/25 09:39:23;;;;;;;6.70;4.23;;;128.10;2176.00;;;;;;5135764;27;20016;-72
2021/01/25 09:41:49;;;;;;;9.37;6.43;;;128.20;2176.00;;;;;;5136830;27;20068;-72
2021/01/25 09:44:16;;;;;;;11.67;7.53;;;128.30;2176.00;;;;;;5135468;27;20027;-72
2021/01/25 09:46:42;;;;;;;11.63;6.87;;;128.40;2176.00;;;;;;5136682;27;20023;-72
2021/01/25 09:49:12;;;;;;;10.70;6.80;;;128.50;2176.00;;;;;;5136821;27;20076;-71
2021/01/25 09:51:40;;;;;;;13.20;7.93;;;128.60;2176.00;;;;;;5137209;27;20436;-71
2021/01/25 09:54:06;;;;;;;14.10;7.20;;;128.70;2176.00;;;;;;5137143;27;20387;-72
2021/01/25 09:56:32;;;;;;;29.27;16.60;;;128.80;2124.80;;;;;;5137184;27;20034;-79
2021/01/25 09:58:58;;;;;;;14.83;9.37;;;153.60;2150.40;;;;;;5136893;27;20076;-79
2021/01/25 10:01:24;;;;;;;24.97;13.33;;;153.60;2099.20;;;;;;5137428;27;20027;-72
2021/01/25 10:03:50;;;;;;;20.20;12.17;;;153.80;2099.20;;;;;;5137143;27;20559;-80
2021/01/25 10:06:16;;;;;;;17.23;8.73;;;154.00;2073.60;;;;;;5135786;27;20106;-71
2021/01/25 10:08:43;;;;;;;12.30;6.00;;;154.30;2048.00;;;;;;5136906;27;20128;-81
2021/01/25 10:11:09;;;;;;;14.53;7.77;;;179.80;1945.60;;;;;;5136842;27;20020;-72
2021/01/25 10:13:35;;;;;;;20.53;8.37;;;205.30;1868.80;;;;;;5136991;27;20046;-72
2021/01/25 10:16:02;;;;;;;18.42;8.05;;;230.40;1740.80;;;;;;5136862;27;20023;-70
2021/01/25 10:18:28;;;;;;;19.48;9.98;;;205.20;1766.40;;;;;;5136683;27;20035;-73
2021/01/25 10:20:54;;;;;;;9.90;6.28;;;204.80;1843.20;;;;;;5136662;27;20027;-76
2021/01/25 10:23:20;;;;;;;20.83;10.63;;;180.10;1843.20;;;;;;5136563;27;20027;-74
2021/01/25 10:25:46;;;;;;;29.88;14.65;;;180.10;1843.20;;;;;;5135933;27;20080;-81
2021/01/25 10:28:12;;;;;;;17.20;8.07;;;204.80;1868.80;;;;;;5135861;27;20027;-79
2021/01/25 10:30:38;;;;;;;18.02;9.13;;;180.00;1868.80;;;;;;5134092;27;20031;-80
2021/01/25 10:33:04;;;;;;;13.95;6.45;;;180.10;1868.80;;;;;;5135923;27;20053;-80
2021/01/25 10:35:30;;;;;;;13.85;6.88;;;204.90;1817.60;;;;;;5135746;27;20479;-74
2021/01/25 10:37:58;;;;;;;11.90;7.53;;;204.80;1843.20;;;;;;5134443;27;20379;-74
2021/01/25 10:40:24;;;;;;;29.92;19.70;;;180.10;1868.80;;;;;;5135699;27;20439;-74
2021/01/25 10:42:50;;;;;;;39.90;18.90;;;180.00;1843.20;;;;;;5135847;27;20066;-73
2021/01/25 10:45:17;;;;;;;30.50;14.43;;;180.10;1868.80;;;;;;5136215;27;20031;-73
2021/01/25 10:47:43;;;;;;;13.60;6.90;;;205.20;1843.20;;;;;;5136025;27;20019;-74
2021/01/25 10:50:14;;;;;;;13.85;7.30;;;205.40;1766.40;;;;;;5136108;27;20068;-73
2021/01/25 10:52:40;;;;;;;33.70;14.85;;;230.40;1740.80;;;;;;5135948;27;20080;-78
2021/01/25 10:55:07;;;;;;;54.83;23.13;;;230.60;1664.00;;;;;;5134632;27;20035;-73
2021/01/25 10:57:34;;;;;;;26.55;13.63;;;230.50;1664.00;;;;;;5134540;27;20093;-74
2021/01/25 11:00:15;;;;;;;14.38;8.27;;;230.60;1689.60;;;;;;5135812;27;20122;-73
2021/01/25 11:02:42;;;;;;;78.15;30.35;;;230.80;1638.40;;;;;;5135840;27;20068;-73
2021/01/25 11:05:09;;;;;;;41.45;18.15;;;230.50;1638.40;;;;;;5134441;27;20019;-73
2021/01/25 11:07:36;;;;;;;16.00;8.85;;;205.50;1689.60;;;;;;5135987;27;20051;-80
2021/01/25 11:10:04;;;;;;;26.85;7.90;;;205.40;1740.80;;;;;;5135547;27;20024;-73
2021/01/25 11:12:30;;;;;;;18.13;12.70;;;205.30;1740.80;;;;;;5134239;27;20040;-74
2021/01/25 11:14:56;;;;;;;17.55;9.95;;;205.30;1740.80;;;;;;5135594;27;20023;-73
2021/01/25 11:17:22;;;;;;;18.08;11.18;;;205.10;1740.80;;;;;;5135571;27;20483;-73
2021/01/25 11:19:48;;;;;;;12.93;8.82;;;205.20;1766.40;;;;;;5134255;27;20015;-73
2021/01/25 11:22:14;;;;;;;17.45;9.32;;;205.20;1740.80;;;;;;5135754;27;20026;-73
2021/01/25 11:24:40;;;;;;;14.95;6.60;;;205.40;1740.80;;;;;;5135347;27;20055;-74
2021/01/25 11:27:06;;;;;;;94.68;8.70;;;205.50;1740.80;;;;;;5135219;27;20016;-73
2021/01/25 11:29:32;;;;;;;108.45;52.83;;;205.70;1715.20;;;;;;5135304;27;20026;-73
2021/01/25 11:32:03;;;;;;;97.82;45.47;;;230.40;1689.60;;;;;;5135233;27;20030;-78
2021/01/25 11:34:29;;;;;;;20.60;8.73;;;230.60;1715.20;;;;;;5135138;27;20042;-80
2021/01/25 11:36:56;;;;;;;23.52;5.60;;;230.70;1664.00;;;;;;5135159;27;20027;-79
2021/01/25 11:39:27;;;;;;;11.95;3.85;;;230.40;1664.00;;;;;;5134830;27;20076;-80
2021/01/25 11:41:53;;;;;;;7.80;4.20;;;205.50;1664.00;;;;;;5134566;27;20019;-79
2021/01/25 11:44:19;;;;;;;12.15;5.40;;;205.30;1715.20;;;;;;5134877;27;20023;-74
2021/01/25 11:46:45;;;;;;;8.68;5.35;;;205.10;1766.40;;;;;;5133064;27;20025;-73
2021/01/25 11:49:11;;;;;;;16.55;5.05;;;205.00;1766.40;;;;;;5134863;27;20488;-73
2021/01/25 11:51:37;;;;;;;11.95;5.43;;;204.80;1792.00;;;;;;5134722;27;20019;-80
2021/01/25 11:54:03;;;;;;;27.75;19.75;;;180.00;1792.00;;;;;;5134904;27;20034;-73
2021/01/25 11:56:29;;;;;;;12.70;6.65;;;180.00;1817.60;;;;;;5134451;27;20025;-73
2021/01/25 11:58:55;;;;;;;8.68;5.40;;;179.90;1868.80;;;;;;5132944;27;20391;-72
2021/01/25 12:01:21;;;;;;;11.35;6.10;;;179.70;1868.80;;;;;;5133955;27;20035;-74
2021/01/25 12:03:47;;;;;;;11.23;6.22;;;179.70;1894.40;;;;;;5134643;27;20037;-80
2021/01/25 12:06:13;;;;;;;14.25;5.10;;;179.70;1894.40;;;;;;5134611;27;20098;-73
2021/01/25 12:08:39;;;;;;;11.73;4.88;;;179.50;1843.20;;;;;;5134643;27;20038;-79
2021/01/25 12:11:06;;;;;;;16.02;6.82;;;179.50;1868.80;;;;;;5134326;27;20498;-82
2021/01/25 12:13:32;;;;;;;16.63;7.72;;;179.30;1868.80;;;;;;5134330;27;20099;-81
2021/01/25 12:15:58;;;;;;;16.90;7.68;;;179.40;1843.20;;;;;;5133986;27;20468;-74
2021/01/25 12:18:27;;;;;;;16.58;7.32;;;179.50;1843.20;;;;;;5133831;27;20020;-76